Terminal Aerodrome Forecast
Issued by NWS

Home | Current Version | Previous Version | Text Only | Print | Product List | Glossary On
Versions: 1 2 3 4 5 6 7 8 9 10 11 12
000
FTAK31 PAJN 191100
TAFAKT
TAF
PAKT 191122Z 1912/2012 17007KT P6SM -RA OVC050
     FM191600 15010KT P6SM -RA BKN025 OVC040
     FM200900 14012G18KT 5SM -RA BR BKN015 OVC025
      AMD LTD TO CLD VIS AND WIND 1912/1915=

USA.gov is the U.S. government's official web portal to all federal, state and local government web resources and services.